Time;durP1;ratioP1;P1;durP2;ratioP2;P2;SDS_P1;SDS_P2;PMS_P1;PMS_P2;Temp;Humidity;BMP_temperature;BMP_pressure;BME280_temperature;BME280_humidity;BME280_pressure;Samples;Min_cycle;Max_cycle;Signal;HPM_P1;HPM_P2
2021/04/18 00:01:38;;;;;;;0.35;0.35;;;8.30;99.90;;;;;;5035059;28;20258;-79
2021/04/18 00:04:05;;;;;;;0.50;0.50;;;8.30;99.90;;;;;;5053153;28;20215;-80
2021/04/18 00:06:34;;;;;;;0.68;0.68;;;8.30;99.90;;;;;;5053180;28;20179;-77
2021/04/18 00:09:00;;;;;;;0.82;0.82;;;8.20;99.90;;;;;;5053013;28;20177;-80
2021/04/18 00:11:26;;;;;;;1.35;0.93;;;8.30;99.90;;;;;;5052861;28;20167;-80
2021/04/18 00:13:52;;;;;;;0.95;0.95;;;8.50;99.90;;;;;;5053184;28;20175;-80
2021/04/18 00:16:18;;;;;;;0.73;0.73;;;8.50;99.90;;;;;;5052869;28;20191;-80
2021/04/18 00:18:44;;;;;;;0.90;0.90;;;8.40;99.90;;;;;;5052887;28;20195;-80
2021/04/18 00:21:09;;;;;;;0.70;0.70;;;8.30;99.90;;;;;;5052819;28;20225;-79
2021/04/18 00:23:35;;;;;;;0.90;0.90;;;8.30;99.90;;;;;;5052695;28;20166;-80
2021/04/18 00:26:01;;;;;;;0.63;0.63;;;8.30;99.90;;;;;;5052527;28;20213;-79
2021/04/18 00:28:27;;;;;;;0.32;0.32;;;8.40;99.90;;;;;;5034832;28;20171;-78
2021/04/18 00:30:52;;;;;;;0.35;0.32;;;8.30;99.90;;;;;;5052785;28;20164;-79
2021/04/18 00:33:18;;;;;;;0.95;0.60;;;8.30;99.90;;;;;;5034624;28;20226;-77
2021/04/18 00:35:44;;;;;;;5.35;1.67;;;8.40;99.90;;;;;;5052521;28;20178;-80
2021/04/18 00:38:10;;;;;;;0.35;0.35;;;8.10;99.90;;;;;;5052326;28;20167;-80
2021/04/18 00:40:38;;;;;;;0.98;0.98;;;8.00;99.90;;;;;;5052504;28;20274;-79
2021/04/18 00:43:04;;;;;;;0.75;0.75;;;8.00;99.90;;;;;;5055053;28;20156;-79
2021/04/18 00:45:30;;;;;;;0.70;0.70;;;8.10;99.90;;;;;;5056258;28;20164;-80
2021/04/18 00:47:57;;;;;;;0.52;0.52;;;8.20;99.90;;;;;;5038562;28;20182;-80
2021/04/18 00:50:27;;;;;;;0.57;0.57;;;8.30;99.90;;;;;;5056318;28;20174;-80
2021/04/18 00:52:54;;;;;;;0.40;0.40;;;8.30;99.90;;;;;;5056261;28;20289;-78
2021/04/18 00:55:23;;;;;;;0.30;0.30;;;8.30;99.90;;;;;;5038394;28;20193;-79
2021/04/18 00:57:52;;;;;;;3.40;1.00;;;8.30;99.90;;;;;;5056119;28;20210;-78
2021/04/18 01:00:18;;;;;;;9.40;2.65;;;8.40;99.90;;;;;;5056068;28;20176;-78
2021/04/18 01:02:44;;;;;;;0.57;0.57;;;8.30;99.90;;;;;;5038214;28;20179;-76
2021/04/18 01:05:10;;;;;;;0.73;0.73;;;8.20;99.90;;;;;;5056050;28;20190;-76
2021/04/18 01:07:36;;;;;;;1.20;0.70;;;8.00;99.90;;;;;;5056044;28;20623;-78
2021/04/18 01:10:08;;;;;;;31.80;1.33;;;7.80;99.90;;;;;;5055997;28;20155;-77
2021/04/18 01:12:34;;;;;;;1.50;1.40;;;7.90;99.90;;;;;;5055921;28;20167;-77
2021/04/18 01:14:59;;;;;;;0.93;0.93;;;7.90;99.90;;;;;;5056077;28;20163;-77
2021/04/18 01:17:26;;;;;;;0.90;0.90;;;7.90;99.90;;;;;;5055711;28;20668;-78
2021/04/18 01:19:52;;;;;;;3.95;2.22;;;7.90;99.90;;;;;;5038182;28;20573;-78
2021/04/18 01:22:17;;;;;;;1.40;0.63;;;8.00;99.90;;;;;;5055709;28;20163;-77
2021/04/18 01:24:43;;;;;;;0.55;0.55;;;7.90;99.90;;;;;;5055782;28;20254;-77
2021/04/18 01:27:10;;;;;;;11.80;1.35;;;7.90;99.90;;;;;;5037670;28;20249;-79
2021/04/18 01:29:36;;;;;;;6.07;2.83;;;7.90;99.90;;;;;;5055498;28;20213;-77
2021/04/18 01:32:02;;;;;;;1.80;1.67;;;8.00;99.90;;;;;;5055314;28;20219;-77
2021/04/18 01:34:30;;;;;;;0.55;0.55;;;8.10;99.90;;;;;;5055345;28;20178;-77
2021/04/18 01:36:55;;;;;;;36.05;2.38;;;8.10;99.90;;;;;;5070678;28;20183;-77
2021/04/18 01:39:21;;;;;;;2.15;1.17;;;8.10;99.90;;;;;;5055354;28;20206;-78
2021/04/18 01:41:47;;;;;;;1.63;1.45;;;8.10;99.90;;;;;;5037461;28;20163;-77
2021/04/18 01:44:13;;;;;;;2.58;0.93;;;8.00;99.90;;;;;;5055412;28;20224;-77
2021/04/18 01:46:43;;;;;;;0.65;0.65;;;7.90;99.90;;;;;;5055155;28;20647;-77
2021/04/18 01:49:09;;;;;;;2.67;0.98;;;7.80;99.90;;;;;;5055126;28;20281;-78
2021/04/18 01:51:36;;;;;;;4.28;1.63;;;7.80;99.90;;;;;;5037381;28;20242;-78
2021/04/18 01:54:03;;;;;;;0.90;0.90;;;7.70;99.90;;;;;;5053939;28;20286;-78
2021/04/18 01:56:34;;;;;;;1.45;1.35;;;7.70;99.90;;;;;;5054861;28;20214;-78
2021/04/18 01:59:00;;;;;;;0.60;0.60;;;7.80;99.90;;;;;;5037020;28;20674;-77
2021/04/18 02:01:26;;;;;;;0.60;0.60;;;7.70;99.90;;;;;;5055064;28;20174;-80
2021/04/18 02:03:51;;;;;;;1.17;0.95;;;7.70;99.90;;;;;;5055370;28;20229;-80
2021/04/18 02:06:17;;;;;;;0.52;0.52;;;7.80;99.90;;;;;;5055067;28;20187;-79
2021/04/18 02:08:42;;;;;;;2.65;1.20;;;7.70;99.90;;;;;;5054931;28;20183;-80
2021/04/18 02:11:08;;;;;;;0.60;0.60;;;7.60;99.90;;;;;;5054979;28;20209;-80
2021/04/18 02:13:34;;;;;;;0.57;0.57;;;7.70;99.90;;;;;;5054890;28;20238;-81
2021/04/18 02:15:59;;;;;;;1.27;1.17;;;7.70;99.90;;;;;;5054876;28;20191;-80
2021/04/18 02:18:25;;;;;;;0.63;0.60;;;7.70;99.90;;;;;;5054643;28;20245;-80
2021/04/18 02:20:51;;;;;;;1.55;1.45;;;7.50;99.90;;;;;;5054708;28;20658;-80
2021/04/18 02:23:18;;;;;;;0.45;0.45;;;7.60;99.90;;;;;;5054726;28;20227;-80
2021/04/18 02:25:43;;;;;;;1.10;0.95;;;7.70;99.90;;;;;;5054499;28;20168;-78
2021/04/18 02:28:09;;;;;;;1.33;1.25;;;7.80;99.90;;;;;;5054580;28;20530;-77
2021/04/18 02:30:34;;;;;;;1.27;1.25;;;7.80;99.90;;;;;;5054547;28;20171;-79
2021/04/18 02:33:00;;;;;;;1.15;1.05;;;7.70;99.90;;;;;;5054225;28;20694;-78
2021/04/18 02:35:27;;;;;;;0.52;0.52;;;7.60;99.90;;;;;;5054304;28;20171;-80
2021/04/18 02:37:53;;;;;;;2.33;1.30;;;7.50;99.90;;;;;;5054188;28;20644;-80
2021/04/18 02:40:19;;;;;;;2.60;1.27;;;7.50;99.90;;;;;;5054162;28;20183;-80
2021/04/18 02:42:45;;;;;;;3.63;1.33;;;7.60;99.90;;;;;;5036320;28;20170;-80
2021/04/18 02:45:14;;;;;;;4.57;2.47;;;7.50;99.90;;;;;;5054166;28;20178;-79
2021/04/18 02:47:40;;;;;;;0.65;0.65;;;7.50;99.90;;;;;;5053936;28;20175;-80
2021/04/18 02:50:07;;;;;;;1.67;1.45;;;7.60;99.90;;;;;;5036354;28;20241;-80
2021/04/18 02:52:33;;;;;;;1.42;1.35;;;7.50;99.90;;;;;;5054078;28;20658;-79
2021/04/18 02:54:58;;;;;;;0.70;0.70;;;7.30;99.90;;;;;;5053896;28;20167;-79
2021/04/18 02:57:24;;;;;;;1.40;0.93;;;7.50;99.90;;;;;;5053930;28;20220;-80
2021/04/18 02:59:50;;;;;;;0.50;0.50;;;7.70;99.90;;;;;;5036022;28;20222;-80
2021/04/18 03:02:15;;;;;;;0.88;0.88;;;7.70;99.90;;;;;;5035956;28;20637;-79
2021/04/18 03:04:41;;;;;;;2.72;2.22;;;7.70;99.90;;;;;;5035582;28;20175;-78
2021/04/18 03:07:06;;;;;;;0.60;0.60;;;7.90;99.90;;;;;;5053718;28;20193;-77
2021/04/18 03:09:32;;;;;;;4.95;1.55;;;7.80;99.90;;;;;;5054022;28;20228;-80
2021/04/18 03:11:58;;;;;;;1.40;1.30;;;7.60;99.90;;;;;;5053655;28;20521;-80
2021/04/18 03:14:23;;;;;;;1.35;1.27;;;7.80;99.90;;;;;;5035934;28;20213;-80
2021/04/18 03:16:49;;;;;;;1.65;1.58;;;7.70;99.90;;;;;;5053530;28;20187;-77
2021/04/18 03:19:15;;;;;;;4.03;1.23;;;7.70;99.90;;;;;;5035534;28;20191;-78
2021/04/18 03:21:40;;;;;;;1.20;1.20;;;7.70;99.90;;;;;;5035601;28;20167;-78
2021/04/18 03:24:06;;;;;;;3.38;2.20;;;7.70;99.90;;;;;;5035579;28;20206;-77
2021/04/18 03:26:32;;;;;;;1.48;1.38;;;7.80;99.90;;;;;;5035524;28;20191;-79
2021/04/18 03:28:58;;;;;;;0.95;0.95;;;7.80;99.90;;;;;;5053327;28;20193;-78
2021/04/18 03:31:23;;;;;;;0.60;0.60;;;7.70;99.90;;;;;;5035528;28;20171;-77
2021/04/18 03:33:49;;;;;;;31.98;1.92;;;7.60;99.90;;;;;;5053020;28;20215;-77
2021/04/18 03:36:14;;;;;;;2.72;1.27;;;7.50;99.90;;;;;;5035335;28;20222;-78
2021/04/18 03:38:40;;;;;;;0.60;0.60;;;7.40;99.90;;;;;;5053118;28;20190;-78
2021/04/18 03:41:05;;;;;;;1.23;1.20;;;7.40;99.90;;;;;;5035492;28;20171;-77
2021/04/18 03:43:31;;;;;;;0.68;0.68;;;7.20;99.90;;;;;;5053085;28;20155;-80
2021/04/18 03:45:57;;;;;;;0.75;0.60;;;7.00;99.90;;;;;;5052975;28;20187;-78
2021/04/18 03:48:23;;;;;;;0.43;0.43;;;6.90;99.90;;;;;;5053197;28;20169;-78
2021/04/18 03:50:49;;;;;;;1.40;1.13;;;6.90;99.90;;;;;;5035053;28;20195;-77
2021/04/18 03:53:15;;;;;;;1.90;1.80;;;6.90;99.90;;;;;;5053028;28;20178;-76
2021/04/18 03:55:40;;;;;;;0.70;0.68;;;7.00;99.90;;;;;;5053018;28;20623;-76
2021/04/18 03:58:06;;;;;;;0.93;0.93;;;6.90;99.90;;;;;;5052889;28;20159;-76
2021/04/18 04:00:33;;;;;;;6.15;1.15;;;7.00;99.90;;;;;;5053014;28;20178;-76
2021/04/18 04:02:59;;;;;;;0.98;0.98;;;7.10;99.90;;;;;;5053170;28;20258;-77
2021/04/18 04:05:24;;;;;;;3.35;2.00;;;7.10;99.90;;;;;;5052810;28;20642;-76
2021/04/18 04:07:50;;;;;;;0.77;0.77;;;7.10;99.90;;;;;;5052752;28;20190;-76
2021/04/18 04:10:16;;;;;;;6.03;1.92;;;7.00;99.90;;;;;;5052774;28;20186;-76
2021/04/18 04:12:41;;;;;;;4.80;1.63;;;7.10;99.90;;;;;;5052838;28;20155;-76
2021/04/18 04:15:07;;;;;;;0.52;0.52;;;6.90;99.90;;;;;;5052854;28;20538;-76
2021/04/18 04:17:33;;;;;;;0.93;0.90;;;6.90;99.90;;;;;;5054421;28;20240;-77
2021/04/18 04:19:58;;;;;;;0.50;0.50;;;6.60;99.90;;;;;;5057093;28;20268;-77
2021/04/18 04:22:24;;;;;;;1.15;1.15;;;6.70;99.90;;;;;;5056712;28;20574;-77
2021/04/18 04:24:52;;;;;;;5.65;1.58;;;6.50;99.90;;;;;;5056707;28;20171;-78
2021/04/18 04:27:19;;;;;;;0.80;0.70;;;6.60;99.90;;;;;;5056639;28;20245;-76
2021/04/18 04:29:45;;;;;;;1.00;1.00;;;6.60;99.90;;;;;;5038554;28;20626;-77
2021/04/18 04:32:10;;;;;;;1.83;1.73;;;6.60;99.90;;;;;;5038509;28;20260;-77
2021/04/18 04:34:36;;;;;;;3.15;2.72;;;6.60;99.90;;;;;;5056555;28;20531;-76
2021/04/18 04:37:02;;;;;;;0.75;0.75;;;6.60;99.90;;;;;;5056525;28;20540;-77
2021/04/18 04:39:27;;;;;;;6.65;1.52;;;6.80;99.90;;;;;;5056314;28;20202;-77
2021/04/18 04:41:53;;;;;;;1.73;1.60;;;6.70;99.90;;;;;;5056474;28;20162;-77
2021/04/18 04:44:19;;;;;;;0.75;0.75;;;6.60;99.90;;;;;;5056391;28;20618;-77
2021/04/18 04:46:45;;;;;;;0.40;0.40;;;6.50;99.90;;;;;;5056330;28;20195;-77
2021/04/18 04:49:11;;;;;;;2.33;1.92;;;6.30;99.90;;;;;;5056243;28;20655;-76
2021/04/18 04:51:37;;;;;;;0.73;0.73;;;6.30;99.90;;;;;;5056139;28;20171;-77
2021/04/18 04:54:03;;;;;;;1.58;1.48;;;6.30;99.90;;;;;;5056159;28;20228;-77
2021/04/18 04:56:29;;;;;;;0.98;0.93;;;6.30;99.90;;;;;;5056023;28;20191;-76
2021/04/18 04:58:55;;;;;;;3.20;2.67;;;6.20;99.90;;;;;;5071639;23;21451;-78
2021/04/18 05:01:21;;;;;;;0.45;0.45;;;6.10;99.90;;;;;;5021580;28;20183;-75
2021/04/18 05:03:46;;;;;;;0.88;0.88;;;6.30;99.90;;;;;;5055960;28;20170;-76
2021/04/18 05:06:12;;;;;;;0.93;0.93;;;6.50;99.90;;;;;;5054853;28;20191;-76
2021/04/18 05:08:39;;;;;;;1.02;1.02;;;6.60;99.90;;;;;;5056177;28;20182;-75
2021/04/18 05:11:04;;;;;;;2.33;2.13;;;6.60;99.90;;;;;;5056479;28;20572;-78
2021/04/18 05:13:30;;;;;;;6.18;2.53;;;6.60;99.90;;;;;;5056043;28;20201;-76
2021/04/18 05:15:56;;;;;;;1.13;1.13;;;6.80;99.90;;;;;;5055909;28;20222;-76
2021/04/18 05:18:21;;;;;;;2.15;2.00;;;6.80;99.90;;;;;;5066161;28;20167;-77
2021/04/18 05:20:50;;;;;;;1.17;1.13;;;6.90;99.90;;;;;;5049572;28;20187;-76
2021/04/18 05:23:15;;;;;;;3.05;2.33;;;6.90;99.90;;;;;;5056016;28;20151;-77
2021/04/18 05:25:41;;;;;;;2.58;1.67;;;6.80;99.90;;;;;;5055667;28;20202;-77
2021/04/18 05:28:07;;;;;;;3.22;1.52;;;6.70;99.90;;;;;;5037788;28;20171;-77
2021/04/18 05:30:32;;;;;;;1.67;1.58;;;6.80;99.90;;;;;;5056766;28;20171;-77
2021/04/18 05:32:58;;;;;;;0.75;0.75;;;6.60;99.90;;;;;;5056696;28;20163;-76
2021/04/18 05:35:25;;;;;;;0.65;0.65;;;6.70;99.90;;;;;;5043346;28;20159;-77
2021/04/18 05:37:51;;;;;;;0.80;0.80;;;6.80;99.90;;;;;;5059582;28;20174;-77
2021/04/18 05:40:16;;;;;;;1.05;1.05;;;6.80;99.90;;;;;;5040041;28;20195;-77
2021/04/18 05:42:42;;;;;;;1.00;1.00;;;7.10;99.90;;;;;;5057927;28;20555;-77
2021/04/18 05:45:09;;;;;;;1.48;1.38;;;7.20;99.90;;;;;;5058503;28;20171;-77
2021/04/18 05:47:34;;;;;;;1.92;1.83;;;7.20;99.90;;;;;;5061286;28;20309;-78
2021/04/18 05:50:00;;;;;;;10.30;2.42;;;7.40;99.90;;;;;;5059754;28;20195;-76
2021/04/18 05:52:26;;;;;;;0.57;0.57;;;7.50;99.90;;;;;;5058799;28;20166;-77
2021/04/18 05:54:52;;;;;;;3.38;2.63;;;7.50;99.90;;;;;;5042191;28;20657;-77
2021/04/18 05:57:19;;;;;;;1.27;1.17;;;7.50;99.90;;;;;;5059344;28;20194;-77
2021/04/18 05:59:45;;;;;;;1.35;1.35;;;7.70;99.90;;;;;;5057479;28;20260;-77
2021/04/18 06:02:11;;;;;;;4.70;3.15;;;7.90;99.90;;;;;;5055178;28;20169;-77
2021/04/18 06:04:36;;;;;;;2.25;2.15;;;7.90;99.90;;;;;;5040743;28;20171;-77
2021/04/18 06:07:04;;;;;;;1.60;1.50;;;8.00;99.90;;;;;;5061075;28;20190;-76
2021/04/18 06:09:30;;;;;;;3.05;2.00;;;8.00;99.90;;;;;;5061807;28;20646;-76
2021/04/18 06:11:55;;;;;;;2.50;2.30;;;8.10;99.90;;;;;;5057937;28;20631;-77
2021/04/18 06:14:21;;;;;;;1.30;1.25;;;8.20;99.90;;;;;;5023973;28;20171;-77
2021/04/18 06:16:49;;;;;;;6.95;3.45;;;8.40;99.90;;;;;;5059589;28;20594;-77
2021/04/18 06:19:16;;;;;;;12.40;1.05;;;8.60;99.90;;;;;;5039457;28;20191;-78
2021/04/18 06:21:42;;;;;;;1.17;1.17;;;8.60;99.90;;;;;;5056486;28;20166;-78
2021/04/18 06:24:08;;;;;;;3.50;1.98;;;8.50;99.90;;;;;;5057970;28;20171;-77
2021/04/18 06:26:36;;;;;;;1.92;1.83;;;8.50;99.90;;;;;;5060936;28;20697;-76
2021/04/18 06:29:01;;;;;;;1.67;1.52;;;8.40;99.90;;;;;;5065707;28;20201;-78
2021/04/18 06:31:27;;;;;;;4.22;2.50;;;8.70;99.90;;;;;;5063304;28;20182;-78
2021/04/18 06:33:53;;;;;;;7.28;1.30;;;8.90;99.90;;;;;;5063524;28;20185;-77
2021/04/18 06:36:18;;;;;;;0.90;0.90;;;9.10;99.90;;;;;;5054684;28;20248;-77
2021/04/18 06:38:44;;;;;;;1.70;1.60;;;9.20;99.90;;;;;;5054421;28;20203;-77
2021/04/18 06:41:20;;;;;;;1.00;1.00;;;9.40;99.90;;;;;;5053374;28;20163;-78
2021/04/18 06:43:47;;;;;;;8.80;2.83;;;9.60;99.90;;;;;;5054574;28;20159;-78
2021/04/18 06:46:16;;;;;;;2.50;2.38;;;9.60;99.90;;;;;;5055805;28;20682;-77
2021/04/18 06:48:43;;;;;;;1.20;1.17;;;9.50;99.90;;;;;;5068300;28;20163;-77
2021/04/18 06:51:08;;;;;;;24.35;2.75;;;9.50;99.90;;;;;;5063363;28;20190;-77
2021/04/18 06:53:34;;;;;;;1.98;1.88;;;9.60;99.90;;;;;;5060480;28;20638;-77
2021/04/18 06:56:03;;;;;;;1.95;1.85;;;9.60;99.90;;;;;;5054701;28;20225;-78
2021/04/18 06:58:29;;;;;;;2.63;2.42;;;9.60;99.90;;;;;;5054307;28;20283;-77
2021/04/18 07:00:54;;;;;;;3.42;1.67;;;9.40;99.90;;;;;;5032806;28;20318;-77
2021/04/18 07:03:23;;;;;;;1.80;1.70;;;8.90;99.90;;;;;;5033610;28;20152;-78
2021/04/18 07:05:50;;;;;;;1.33;1.30;;;8.50;99.90;;;;;;5033222;28;20199;-77
2021/04/18 07:08:23;;;;;;;1.77;1.67;;;8.50;99.90;;;;;;5032527;28;20258;-77
2021/04/18 07:10:50;;;;;;;2.80;2.58;;;8.40;99.90;;;;;;5034218;28;20200;-76
2021/04/18 07:13:17;;;;;;;2.08;1.60;;;8.40;99.90;;;;;;5038259;28;20160;-76
2021/04/18 07:15:45;;;;;;;5.65;2.10;;;8.60;99.90;;;;;;5055151;28;20176;-78
2021/04/18 07:18:38;;;;;;;0.77;0.77;;;8.80;99.90;;;;;;5053979;28;20163;-77
2021/04/18 07:21:04;;;;;;;3.72;2.95;;;8.80;99.90;;;;;;5048425;28;20176;-77
2021/04/18 07:23:34;;;;;;;1.30;1.27;;;8.80;99.90;;;;;;5022489;28;20180;-78
2021/04/18 07:26:20;;;;;;;12.00;1.40;;;9.20;99.90;;;;;;5035202;28;20713;-76
2021/04/18 07:28:46;;;;;;;2.17;2.08;;;9.20;99.90;;;;;;5033841;28;20179;-78
2021/04/18 07:31:12;;;;;;;1.70;1.40;;;9.20;99.90;;;;;;5033769;28;20531;-76
2021/04/18 07:34:00;;;;;;;1.13;1.13;;;9.40;99.90;;;;;;5033694;28;20164;-77
2021/04/18 07:36:25;;;;;;;1.60;1.50;;;9.30;99.90;;;;;;5034078;28;20192;-77
2021/04/18 07:38:51;;;;;;;1.45;1.35;;;9.50;99.90;;;;;;5035688;28;20194;-77
2021/04/18 07:41:20;;;;;;;1.80;1.67;;;9.70;99.90;;;;;;5049115;28;20575;-77
2021/04/18 07:43:47;;;;;;;4.13;1.70;;;9.80;99.90;;;;;;5033290;28;20561;-77
2021/04/18 07:46:13;;;;;;;1.02;1.02;;;9.90;99.90;;;;;;5033736;28;20531;-78
2021/04/18 07:48:39;;;;;;;3.72;2.13;;;9.90;99.90;;;;;;5036033;28;20250;-78
2021/04/18 07:51:05;;;;;;;1.15;1.13;;;9.80;99.90;;;;;;5033463;28;20195;-78
2021/04/18 07:53:31;;;;;;;1.27;1.17;;;10.10;99.90;;;;;;5031949;28;20192;-78
2021/04/18 07:55:57;;;;;;;3.13;1.55;;;10.10;99.90;;;;;;5033218;28;20222;-78
2021/04/18 07:58:23;;;;;;;6.60;3.80;;;10.10;99.90;;;;;;5033082;28;20168;-78
2021/04/18 08:00:49;;;;;;;1.35;1.30;;;10.20;99.90;;;;;;5050936;28;20300;-78
2021/04/18 08:03:15;;;;;;;5.45;1.35;;;10.30;99.90;;;;;;5035098;28;20186;-79
2021/04/18 08:05:45;;;;;;;1.65;1.55;;;10.10;99.90;;;;;;5053081;28;20229;-76
2021/04/18 08:08:13;;;;;;;0.90;0.88;;;10.10;99.90;;;;;;5053345;28;20160;-76
2021/04/18 08:10:46;;;;;;;1.42;1.33;;;10.20;99.90;;;;;;5052946;28;20171;-76
2021/04/18 08:13:14;;;;;;;2.08;1.42;;;10.40;99.90;;;;;;5052905;28;20194;-77
2021/04/18 08:15:46;;;;;;;1.45;1.42;;;10.80;99.90;;;;;;5035014;28;20266;-77
2021/04/18 08:18:15;;;;;;;1.08;1.08;;;10.80;99.90;;;;;;5053625;28;20221;-76
2021/04/18 08:20:43;;;;;;;2.63;1.63;;;11.00;99.90;;;;;;5053800;28;20163;-76
2021/04/18 08:23:14;;;;;;;7.95;1.92;;;11.00;99.90;;;;;;5052722;28;20556;-76
2021/04/18 08:26:05;;;;;;;1.35;1.35;;;10.80;99.90;;;;;;5052965;28;20163;-76
2021/04/18 08:28:32;;;;;;;3.35;2.33;;;10.90;99.90;;;;;;5052777;28;20167;-75
2021/04/18 08:31:07;;;;;;;1.50;1.40;;;10.90;99.90;;;;;;5035121;28;20501;-75
2021/04/18 08:33:43;;;;;;;5.50;1.98;;;11.00;99.90;;;;;;5052748;28;20148;-75
2021/04/18 08:36:34;;;;;;;1.33;0.77;;;11.10;99.90;;;;;;5052557;28;20184;-76
2021/04/18 08:39:06;;;;;;;1.50;0.85;;;11.00;99.90;;;;;;5052819;28;20670;-75
2021/04/18 08:41:49;;;;;;;1.02;1.02;;;11.20;99.90;;;;;;5052516;28;20246;-75
2021/04/18 08:44:39;;;;;;;2.38;1.55;;;11.30;99.90;;;;;;5052658;28;20209;-76
2021/04/18 08:47:05;;;;;;;4.57;1.65;;;11.40;99.90;;;;;;5054422;28;20270;-76
2021/04/18 08:49:43;;;;;;;0.85;0.82;;;11.40;99.90;;;;;;5054864;28;20209;-77
2021/04/18 08:52:14;;;;;;;1.08;0.90;;;11.60;99.90;;;;;;5035421;28;20217;-76
2021/04/18 08:54:44;;;;;;;2.60;1.73;;;11.70;99.90;;;;;;5052944;28;20297;-76
2021/04/18 08:57:12;;;;;;;1.17;1.13;;;11.80;99.90;;;;;;5052670;28;20655;-76
2021/04/18 08:59:43;;;;;;;1.75;1.10;;;11.90;99.90;;;;;;5054425;28;20592;-74
2021/04/18 09:02:10;;;;;;;2.58;0.90;;;11.80;99.90;;;;;;5053016;28;20764;-76
2021/04/18 09:04:39;;;;;;;2.10;1.05;;;11.90;99.90;;;;;;5056135;28;20163;-75
2021/04/18 09:07:07;;;;;;;1.02;0.90;;;11.90;99.90;;;;;;5057708;28;20185;-76
2021/04/18 09:09:33;;;;;;;0.93;0.93;;;11.70;99.90;;;;;;5047802;28;20182;-77
2021/04/18 09:11:59;;;;;;;1.55;1.45;;;11.80;99.90;;;;;;5039611;28;20179;-77
2021/04/18 09:14:31;;;;;;;13.70;1.20;;;11.70;99.90;;;;;;5071131;28;20217;-76
2021/04/18 09:17:30;;;;;;;0.75;0.75;;;11.90;99.90;;;;;;5073227;28;20198;-76
2021/04/18 09:20:00;;;;;;;3.58;1.77;;;12.00;99.90;;;;;;5052978;28;20210;-75
2021/04/18 09:22:33;;;;;;;1.17;1.08;;;12.40;99.90;;;;;;5041853;28;20171;-75
2021/04/18 09:25:11;;;;;;;35.28;2.35;;;12.60;99.90;;;;;;5057493;28;20173;-76
2021/04/18 09:27:51;;;;;;;1.80;1.70;;;12.60;99.90;;;;;;5058072;28;20638;-77
2021/04/18 09:30:17;;;;;;;3.30;1.85;;;12.40;99.90;;;;;;5072643;28;20619;-77
2021/04/18 09:32:48;;;;;;;2.05;1.85;;;12.40;99.90;;;;;;5056406;28;20281;-76
2021/04/18 09:35:19;;;;;;;0.63;0.63;;;12.60;99.90;;;;;;5055096;28;20165;-74
2021/04/18 09:37:56;;;;;;;1.65;0.98;;;12.80;99.90;;;;;;5055500;28;20190;-75
2021/04/18 09:40:25;;;;;;;4.57;2.05;;;12.90;99.90;;;;;;5068845;28;20299;-75
2021/04/18 09:42:51;;;;;;;0.68;0.68;;;12.90;99.90;;;;;;5075120;28;20151;-75
2021/04/18 09:45:22;;;;;;;2.17;1.85;;;12.90;99.90;;;;;;5077726;28;20162;-75
2021/04/18 09:48:13;;;;;;;2.53;1.98;;;13.00;99.90;;;;;;5075461;28;20182;-76
2021/04/18 09:50:38;;;;;;;2.83;1.00;;;13.00;99.90;;;;;;5063432;28;20637;-76
2021/04/18 09:53:18;;;;;;;1.15;1.13;;;13.00;99.90;;;;;;5074990;28;20169;-75
2021/04/18 09:56:14;;;;;;;2.72;1.17;;;12.80;99.90;;;;;;5086341;28;20192;-75
2021/04/18 09:58:42;;;;;;;0.93;0.93;;;13.10;99.90;;;;;;5089817;28;20219;-74
2021/04/18 10:01:28;;;;;;;0.63;0.63;;;13.10;99.90;;;;;;5080444;28;20174;-75
2021/04/18 10:03:54;;;;;;;0.80;0.80;;;13.20;99.90;;;;;;5076117;28;20166;-76
2021/04/18 10:06:20;;;;;;;8.13;2.95;;;13.30;99.90;;;;;;5074911;28;20577;-76
2021/04/18 10:08:56;;;;;;;10.02;1.00;;;13.40;99.90;;;;;;5074858;28;20223;-76
2021/04/18 10:11:22;;;;;;;0.60;0.60;;;13.50;99.90;;;;;;5074571;28;20167;-75
2021/04/18 10:13:55;;;;;;;2.65;1.33;;;13.40;99.90;;;;;;5071371;28;20563;-77
2021/04/18 10:16:42;;;;;;;2.88;0.90;;;13.50;99.90;;;;;;5073624;28;20178;-77
2021/04/18 10:19:11;;;;;;;0.40;0.40;;;13.40;99.90;;;;;;5073723;28;20324;-77
2021/04/18 10:21:38;;;;;;;2.83;1.77;;;13.40;99.90;;;;;;5074525;28;20259;-77
2021/04/18 10:24:36;;;;;;;0.93;0.93;;;13.40;99.90;;;;;;5075027;28;20174;-77
2021/04/18 10:27:04;;;;;;;0.95;0.95;;;13.50;99.90;;;;;;5076783;28;20190;-76
2021/04/18 10:29:30;;;;;;;0.82;0.82;;;13.60;99.90;;;;;;5074694;28;20173;-77
2021/04/18 10:31:55;;;;;;;4.20;1.42;;;13.60;99.90;;;;;;5074954;28;20528;-76
2021/04/18 10:34:21;;;;;;;3.13;0.75;;;13.50;99.90;;;;;;5056643;28;20251;-76
2021/04/18 10:36:47;;;;;;;1.65;1.27;;;13.60;99.90;;;;;;5055902;28;20198;-77
2021/04/18 10:39:15;;;;;;;3.60;0.80;;;13.70;99.90;;;;;;5054089;28;20198;-76
2021/04/18 10:41:43;;;;;;;1.02;1.02;;;13.80;99.90;;;;;;5074101;28;20163;-76
2021/04/18 10:44:09;;;;;;;0.77;0.75;;;13.90;99.90;;;;;;5073634;28;20174;-77
2021/04/18 10:46:34;;;;;;;2.67;1.40;;;14.00;99.90;;;;;;5039674;28;20263;-74
2021/04/18 10:49:00;;;;;;;2.65;1.33;;;14.20;99.90;;;;;;5053524;28;20221;-75
2021/04/18 10:51:26;;;;;;;0.68;0.68;;;14.20;99.90;;;;;;5053141;28;20159;-75
2021/04/18 10:53:51;;;;;;;23.60;1.15;;;14.30;99.90;;;;;;5053509;28;20191;-75
2021/04/18 10:56:17;;;;;;;4.65;1.65;;;13.90;99.90;;;;;;5053437;28;20253;-76
2021/04/18 10:58:42;;;;;;;3.58;1.55;;;13.40;99.90;;;;;;5052972;28;20199;-75
2021/04/18 11:01:08;;;;;;;1.25;0.90;;;13.70;99.90;;;;;;5052615;28;20255;-75
2021/04/18 11:03:33;;;;;;;0.85;0.85;;;14.00;99.90;;;;;;5031876;28;20168;-75
2021/04/18 11:05:59;;;;;;;1.13;1.02;;;14.20;99.90;;;;;;5038964;28;20457;-75
2021/04/18 11:08:24;;;;;;;0.82;0.82;;;14.10;99.90;;;;;;5033714;28;20259;-76
2021/04/18 11:10:50;;;;;;;0.82;0.82;;;14.10;99.90;;;;;;5052882;28;20179;-75
2021/04/18 11:13:17;;;;;;;0.47;0.47;;;14.10;99.90;;;;;;5059463;28;20261;-76
2021/04/18 11:15:42;;;;;;;1.00;0.80;;;14.20;99.90;;;;;;5072924;28;20537;-77
2021/04/18 11:18:10;;;;;;;2.65;2.08;;;14.30;99.90;;;;;;5052787;28;20249;-76
2021/04/18 11:20:36;;;;;;;5.47;2.15;;;13.90;99.90;;;;;;5052629;28;20244;-76
2021/04/18 11:23:02;;;;;;;2.03;1.88;;;13.90;99.90;;;;;;5031099;28;20248;-76
2021/04/18 11:25:28;;;;;;;0.60;0.60;;;14.00;99.90;;;;;;5033467;28;20176;-76
2021/04/18 11:27:54;;;;;;;1.38;1.27;;;14.20;99.90;;;;;;5050933;28;20167;-76
2021/04/18 11:30:20;;;;;;;1.65;1.38;;;14.20;99.90;;;;;;5035984;28;20183;-77
2021/04/18 11:32:45;;;;;;;0.75;0.75;;;14.30;99.90;;;;;;5052456;28;20630;-77
2021/04/18 11:35:11;;;;;;;2.58;1.20;;;14.40;99.90;;;;;;5053200;28;20262;-76
2021/04/18 11:37:39;;;;;;;5.47;2.10;;;14.40;99.90;;;;;;5053372;28;20183;-77
2021/04/18 11:40:06;;;;;;;0.93;0.88;;;14.60;99.90;;;;;;5056993;28;20202;-75
2021/04/18 11:42:33;;;;;;;1.35;1.25;;;14.50;99.90;;;;;;5058965;28;20432;-77
2021/04/18 11:45:02;;;;;;;1.10;1.00;;;14.60;99.90;;;;;;5058641;28;20608;-77
2021/04/18 11:47:29;;;;;;;2.40;2.20;;;14.70;99.90;;;;;;5055661;28;20191;-78
2021/04/18 11:49:55;;;;;;;0.70;0.70;;;14.30;99.90;;;;;;5053255;28;20175;-77
2021/04/18 11:52:20;;;;;;;1.30;1.20;;;14.50;99.90;;;;;;5054306;28;20206;-77
2021/04/18 11:54:46;;;;;;;1.60;1.50;;;14.50;99.90;;;;;;5059402;28;20182;-77
2021/04/18 11:57:12;;;;;;;0.90;0.90;;;14.70;99.90;;;;;;5052022;28;20190;-76
2021/04/18 11:59:37;;;;;;;2.10;2.00;;;14.60;99.90;;;;;;5036636;28;20719;-77
2021/04/18 12:02:03;;;;;;;4.55;1.75;;;14.60;99.90;;;;;;5051460;28;20550;-76
2021/04/18 12:04:29;;;;;;;4.13;1.38;;;14.50;99.90;;;;;;5052047;28;20171;-76
2021/04/18 12:06:55;;;;;;;1.90;1.75;;;14.50;99.90;;;;;;5051438;28;20724;-76
2021/04/18 12:09:21;;;;;;;6.60;1.52;;;14.60;99.90;;;;;;5050903;28;20179;-76
2021/04/18 12:11:47;;;;;;;1.33;1.27;;;14.70;99.90;;;;;;5062117;28;20167;-76
2021/04/18 12:14:12;;;;;;;3.55;2.38;;;14.60;99.90;;;;;;5057408;28;20645;-76
2021/04/18 12:16:38;;;;;;;1.50;1.40;;;14.70;99.90;;;;;;5052205;28;20191;-75
2021/04/18 12:19:06;;;;;;;0.63;0.63;;;14.60;99.90;;;;;;5032727;28;20249;-77
2021/04/18 12:21:32;;;;;;;2.35;1.30;;;14.50;99.90;;;;;;5055602;28;20703;-76
2021/04/18 12:23:58;;;;;;;2.28;1.00;;;14.60;99.90;;;;;;5034214;28;20263;-75
2021/04/18 12:26:24;;;;;;;1.42;1.23;;;14.70;99.90;;;;;;5051484;28;20187;-76
2021/04/18 12:28:50;;;;;;;1.33;1.15;;;14.80;99.90;;;;;;5054633;28;20164;-76
2021/04/18 12:31:17;;;;;;;1.75;1.48;;;14.80;99.90;;;;;;5061133;28;20178;-76
2021/04/18 12:33:43;;;;;;;1.08;1.08;;;14.60;99.90;;;;;;5040706;28;20517;-76
2021/04/18 12:36:09;;;;;;;2.42;1.55;;;14.70;99.90;;;;;;5079154;28;20193;-75
2021/04/18 12:38:34;;;;;;;5.25;1.95;;;14.60;99.90;;;;;;5074191;28;20225;-76
2021/04/18 12:41:00;;;;;;;0.80;0.80;;;14.50;99.90;;;;;;5073962;28;20179;-76
2021/04/18 12:43:25;;;;;;;0.57;0.57;;;14.50;99.90;;;;;;5063749;28;20159;-77
2021/04/18 12:45:55;;;;;;;1.13;1.02;;;14.70;99.90;;;;;;5065682;28;20195;-77
2021/04/18 12:48:20;;;;;;;5.38;1.17;;;14.80;99.90;;;;;;5067432;28;20175;-75
2021/04/18 12:50:51;;;;;;;1.33;1.23;;;15.00;99.90;;;;;;4992461;28;20224;-76
2021/04/18 12:53:18;;;;;;;1.02;1.02;;;15.10;99.90;;;;;;5015153;28;20256;-77
2021/04/18 12:55:44;;;;;;;1.38;1.27;;;14.80;99.90;;;;;;5015376;28;20303;-76